Amburgey, Kentucky
Current Conditions -  °F | °C
As of 9:55 AM on Monday 24 Nov 2014 (Local Time) from KI35 Reporting Station
Broken Clouds Broken Clouds  
Wind Chill: 63°   Ceiling: 3400
Heat Index: 63°   Visibility: 10mi
Dew Point: 48°   Wind: 12mph
Humidity: 59%   Direction: 210°SSW
Pressure: 29.65"   Gusts: 36mph
Location:  37.1842°N, 83.1053°W
Report Text: KI35 241455Z AUTO 21010G31KT 130V290 10SM BKN034 BKN040 BKN047 17/09 A2965 RMK AO1
Loading
Personal Weather Stations






























Interactive Weather Map New forecast layout! Learn more

10-Day Weather Forecast

Advertisements
Track Severe Weather on mobile